sensor_id;sensor_type;location;lat;lon;timestamp;pressure;altitude;pressure_sealevel;temperature;humidity
23318;BME280;11831;55.918;37.746;2022-08-01T00:00:35;99601.94;;;20.92;0.00
23318;BME280;11831;55.918;37.746;2022-08-01T00:03:01;99609.00;;;20.93;0.00
23318;BME280;11831;55.918;37.746;2022-08-01T00:05:27;99605.88;;;21.23;0.00
23318;BME280;11831;55.918;37.746;2022-08-01T00:07:53;99611.84;;;21.25;0.00
23318;BME280;11831;55.918;37.746;2022-08-01T00:10:19;99607.84;;;21.36;0.00
23318;BME280;11831;55.918;37.746;2022-08-01T00:12:46;99604.50;;;21.45;0.00
23318;BME280;11831;55.918;37.746;2022-08-01T00:15:13;99599.78;;;21.50;0.00
23318;BME280;11831;55.918;37.746;2022-08-01T00:17:40;99604.91;;;21.33;0.00
23318;BME280;11831;55.918;37.746;2022-08-01T00:20:07;99599.84;;;21.26;0.00
23318;BME280;11831;55.918;37.746;2022-08-01T00:22:34;99596.09;;;21.22;0.00
23318;BME280;11831;55.918;37.746;2022-08-01T00:25:00;99586.00;;;21.42;0.00
23318;BME280;11831;55.918;37.746;2022-08-01T00:27:27;99599.19;;;21.34;0.00
23318;BME280;11831;55.918;37.746;2022-08-01T00:29:53;99596.75;;;21.33;0.00
23318;BME280;11831;55.918;37.746;2022-08-01T00:32:19;99603.22;;;21.37;0.00
23318;BME280;11831;55.918;37.746;2022-08-01T00:34:45;99587.25;;;20.93;0.00
23318;BME280;11831;55.918;37.746;2022-08-01T00:37:11;99591.38;;;20.90;0.00
23318;BME280;11831;55.918;37.746;2022-08-01T00:39:38;99592.25;;;20.86;0.00
23318;BME280;11831;55.918;37.746;2022-08-01T00:42:07;99587.34;;;20.64;0.00
23318;BME280;11831;55.918;37.746;2022-08-01T00:44:34;99594.16;;;20.85;0.00
23318;BME280;11831;55.918;37.746;2022-08-01T00:47:00;99595.94;;;21.14;0.00
23318;BME280;11831;55.918;37.746;2022-08-01T00:49:27;99600.16;;;21.44;0.00
23318;BME280;11831;55.918;37.746;2022-08-01T00:51:54;99596.81;;;20.90;0.00
23318;BME280;11831;55.918;37.746;2022-08-01T00:54:20;99593.72;;;20.54;0.00
23318;BME280;11831;55.918;37.746;2022-08-01T00:56:47;99590.81;;;20.69;0.00
23318;BME280;11831;55.918;37.746;2022-08-01T00:59:13;99591.53;;;20.75;0.00
23318;BME280;11831;55.918;37.746;2022-08-01T01:01:40;99596.16;;;20.56;0.00
23318;BME280;11831;55.918;37.746;2022-08-01T01:04:06;99593.12;;;20.57;0.00
23318;BME280;11831;55.918;37.746;2022-08-01T01:11:37;99593.44;;;20.56;0.00
23318;BME280;11831;55.918;37.746;2022-08-01T01:14:09;99593.12;;;20.57;0.00
23318;BME280;11831;55.918;37.746;2022-08-01T01:16:36;99587.81;;;20.47;0.00
23318;BME280;11831;55.918;37.746;2022-08-01T01:19:05;99591.91;;;20.15;0.00
23318;BME280;11831;55.918;37.746;2022-08-01T01:29:52;99578.09;;;20.65;0.00
23318;BME280;11831;55.918;37.746;2022-08-01T01:32:22;99581.16;;;21.01;0.00
23318;BME280;11831;55.918;37.746;2022-08-01T01:34:49;99574.63;;;20.59;0.00
23318;BME280;11831;55.918;37.746;2022-08-01T01:37:17;99580.81;;;20.65;0.00
23318;BME280;11831;55.918;37.746;2022-08-01T01:39:45;99573.38;;;20.52;0.00
23318;BME280;11831;55.918;37.746;2022-08-01T01:42:12;99577.00;;;20.42;0.00
23318;BME280;11831;55.918;37.746;2022-08-01T01:44:39;99568.16;;;20.31;0.00
23318;BME280;11831;55.918;37.746;2022-08-01T01:47:06;99570.91;;;20.55;0.00
23318;BME280;11831;55.918;37.746;2022-08-01T01:49:32;99574.84;;;20.39;0.00
23318;BME280;11831;55.918;37.746;2022-08-01T01:51:58;99579.03;;;21.17;0.00
23318;BME280;11831;55.918;37.746;2022-08-01T01:54:30;99576.38;;;21.12;0.00
23318;BME280;11831;55.918;37.746;2022-08-01T01:56:58;99583.66;;;20.97;0.00
23318;BME280;11831;55.918;37.746;2022-08-01T01:59:25;99582.09;;;20.49;0.00
23318;BME280;11831;55.918;37.746;2022-08-01T02:01:52;99576.56;;;20.59;0.00
23318;BME280;11831;55.918;37.746;2022-08-01T02:04:19;99575.91;;;20.67;0.00
23318;BME280;11831;55.918;37.746;2022-08-01T02:06:46;99584.50;;;20.50;0.00
23318;BME280;11831;55.918;37.746;2022-08-01T02:09:21;99577.38;;;20.30;0.00
23318;BME280;11831;55.918;37.746;2022-08-01T02:11:49;99580.81;;;20.41;0.00
23318;BME280;11831;55.918;37.746;2022-08-01T02:14:16;99579.38;;;20.49;0.00
23318;BME280;11831;55.918;37.746;2022-08-01T02:16:52;99579.28;;;20.30;0.00
23318;BME280;11831;55.918;37.746;2022-08-01T02:19:20;99580.97;;;20.26;0.00
23318;BME280;11831;55.918;37.746;2022-08-01T02:21:55;99578.91;;;20.65;0.00
23318;BME280;11831;55.918;37.746;2022-08-01T02:24:24;99578.47;;;20.58;0.00
23318;BME280;11831;55.918;37.746;2022-08-01T02:26:54;99573.22;;;20.38;0.00
23318;BME280;11831;55.918;37.746;2022-08-01T02:29:24;99574.59;;;20.40;0.00
23318;BME280;11831;55.918;37.746;2022-08-01T02:31:53;99568.59;;;20.38;0.00
23318;BME280;11831;55.918;37.746;2022-08-01T02:34:20;99574.84;;;20.39;0.00
23318;BME280;11831;55.918;37.746;2022-08-01T02:36:46;99576.13;;;20.23;0.00
23318;BME280;11831;55.918;37.746;2022-08-01T02:39:14;99573.72;;;20.45;0.00
23318;BME280;11831;55.918;37.746;2022-08-01T02:41:43;99579.44;;;20.14;0.00
23318;BME280;11831;55.918;37.746;2022-08-01T02:44:10;99579.66;;;20.23;0.00
23318;BME280;11831;55.918;37.746;2022-08-01T02:46:42;99583.34;;;20.32;0.00
23318;BME280;11831;55.918;37.746;2022-08-01T02:49:10;99582.53;;;20.32;0.00
23318;BME280;11831;55.918;37.746;2022-08-01T02:51:38;99581.25;;;20.24;0.00
23318;BME280;11831;55.918;37.746;2022-08-01T02:54:05;99585.50;;;20.06;0.00
23318;BME280;11831;55.918;37.746;2022-08-01T02:56:32;99582.47;;;20.37;0.00
23318;BME280;11831;55.918;37.746;2022-08-01T02:59:11;99585.31;;;20.27;0.00
23318;BME280;11831;55.918;37.746;2022-08-01T03:01:38;99582.06;;;20.25;0.00
23318;BME280;11831;55.918;37.746;2022-08-01T03:04:05;99584.81;;;20.49;0.00
23318;BME280;11831;55.918;37.746;2022-08-01T03:06:32;99580.97;;;20.50;0.00
23318;BME280;11831;55.918;37.746;2022-08-01T03:09:03;99583.66;;;20.55;0.00
23318;BME280;11831;55.918;37.746;2022-08-01T03:11:30;99586.25;;;20.65;0.00
23318;BME280;11831;55.918;37.746;2022-08-01T03:13:59;99592.41;;;20.70;0.00
23318;BME280;11831;55.918;37.746;2022-08-01T03:16:27;99591.91;;;20.68;0.00
23318;BME280;11831;55.918;37.746;2022-08-01T03:18:54;99591.63;;;20.70;0.00
23318;BME280;11831;55.918;37.746;2022-08-01T03:21:22;99589.19;;;20.68;0.00
23318;BME280;11831;55.918;37.746;2022-08-01T03:23:52;99599.41;;;20.76;0.00
23318;BME280;11831;55.918;37.746;2022-08-01T03:26:24;99599.38;;;20.82;0.00
23318;BME280;11831;55.918;37.746;2022-08-01T03:28:52;99597.37;;;20.87;0.00
23318;BME280;11831;55.918;37.746;2022-08-01T03:31:21;99598.06;;;20.98;0.00
23318;BME280;11831;55.918;37.746;2022-08-01T03:33:47;99591.72;;;21.02;0.00
23318;BME280;11831;55.918;37.746;2022-08-01T03:36:13;99585.56;;;20.97;0.00
23318;BME280;11831;55.918;37.746;2022-08-01T03:38:40;99584.31;;;21.08;0.00
23318;BME280;11831;55.918;37.746;2022-08-01T03:41:09;99579.94;;;21.31;0.00
23318;BME280;11831;55.918;37.746;2022-08-01T03:46:43;99579.94;;;21.50;0.00
23318;BME280;11831;55.918;37.746;2022-08-01T03:49:11;99570.16;;;21.49;0.00
23318;BME280;11831;55.918;37.746;2022-08-01T03:51:40;99577.81;;;21.47;0.00
23318;BME280;11831;55.918;37.746;2022-08-01T03:54:07;99577.84;;;21.60;0.00
23318;BME280;11831;55.918;37.746;2022-08-01T03:56:34;99582.63;;;21.12;0.00
23318;BME280;11831;55.918;37.746;2022-08-01T03:59:00;99576.91;;;21.51;0.00
23318;BME280;11831;55.918;37.746;2022-08-01T04:01:29;99587.44;;;21.72;0.00
23318;BME280;11831;55.918;37.746;2022-08-01T04:03:57;99583.25;;;21.79;0.00
23318;BME280;11831;55.918;37.746;2022-08-01T04:06:24;99575.19;;;22.20;0.00
23318;BME280;11831;55.918;37.746;2022-08-01T04:08:50;99578.94;;;21.59;0.00
23318;BME280;11831;55.918;37.746;2022-08-01T04:11:23;99582.16;;;21.80;0.00
23318;BME280;11831;55.918;37.746;2022-08-01T04:13:51;99577.34;;;21.72;0.00
23318;BME280;11831;55.918;37.746;2022-08-01T04:16:17;99580.72;;;22.15;0.00
23318;BME280;11831;55.918;37.746;2022-08-01T04:18:43;99576.00;;;22.21;0.00
23318;BME280;11831;55.918;37.746;2022-08-01T04:21:09;99577.19;;;22.15;0.00
23318;BME280;11831;55.918;37.746;2022-08-01T04:23:35;99580.13;;;22.18;0.00
23318;BME280;11831;55.918;37.746;2022-08-01T04:26:02;99581.66;;;22.38;0.00
23318;BME280;11831;55.918;37.746;2022-08-01T04:28:30;99588.53;;;22.36;0.00
23318;BME280;11831;55.918;37.746;2022-08-01T04:30:57;99588.72;;;22.53;0.00
23318;BME280;11831;55.918;37.746;2022-08-01T04:33:25;99583.47;;;21.83;0.00
23318;BME280;11831;55.918;37.746;2022-08-01T04:35:52;99585.78;;;22.36;0.00
23318;BME280;11831;55.918;37.746;2022-08-01T04:38:19;99586.78;;;21.93;0.00
23318;BME280;11831;55.918;37.746;2022-08-01T04:40:47;99582.66;;;22.42;0.00
23318;BME280;11831;55.918;37.746;2022-08-01T04:43:14;99582.97;;;22.54;0.00
23318;BME280;11831;55.918;37.746;2022-08-01T04:45:40;99585.47;;;22.51;0.00
23318;BME280;11831;55.918;37.746;2022-08-01T04:48:09;99576.16;;;22.93;0.00
23318;BME280;11831;55.918;37.746;2022-08-01T04:50:36;99588.59;;;22.99;0.00
23318;BME280;11831;55.918;37.746;2022-08-01T04:53:03;99582.03;;;22.73;0.00
23318;BME280;11831;55.918;37.746;2022-08-01T04:55:29;99577.91;;;22.89;0.00
23318;BME280;11831;55.918;37.746;2022-08-01T04:57:57;99582.03;;;22.86;0.00
23318;BME280;11831;55.918;37.746;2022-08-01T05:00:23;99591.72;;;23.06;0.00
23318;BME280;11831;55.918;37.746;2022-08-01T05:02:49;99590.81;;;23.33;0.00
23318;BME280;11831;55.918;37.746;2022-08-01T05:05:15;99582.66;;;23.33;0.00
23318;BME280;11831;55.918;37.746;2022-08-01T05:07:42;99594.72;;;23.41;0.00
23318;BME280;11831;55.918;37.746;2022-08-01T05:10:08;99584.66;;;23.64;0.00
23318;BME280;11831;55.918;37.746;2022-08-01T05:12:34;99584.50;;;23.60;0.00
23318;BME280;11831;55.918;37.746;2022-08-01T05:15:01;99588.16;;;24.17;0.00
23318;BME280;11831;55.918;37.746;2022-08-01T05:17:29;99593.44;;;23.83;0.00
23318;BME280;11831;55.918;37.746;2022-08-01T05:19:57;99594.25;;;23.83;0.00
23318;BME280;11831;55.918;37.746;2022-08-01T05:22:23;99590.41;;;23.84;0.00
23318;BME280;11831;55.918;37.746;2022-08-01T05:24:51;99593.38;;;23.52;0.00
23318;BME280;11831;55.918;37.746;2022-08-01T05:27:18;99591.09;;;23.90;0.00
23318;BME280;11831;55.918;37.746;2022-08-01T05:29:44;99588.56;;;23.94;0.00
23318;BME280;11831;55.918;37.746;2022-08-01T05:32:10;99582.03;;;24.34;0.00
23318;BME280;11831;55.918;37.746;2022-08-01T05:34:36;99590.91;;;24.17;0.00
23318;BME280;11831;55.918;37.746;2022-08-01T05:37:03;99580.88;;;24.04;0.00
23318;BME280;11831;55.918;37.746;2022-08-01T05:39:29;99584.94;;;24.38;0.00
23318;BME280;11831;55.918;37.746;2022-08-01T05:41:55;99590.84;;;24.31;0.00
23318;BME280;11831;55.918;37.746;2022-08-01T05:44:21;99584.34;;;24.19;0.00
23318;BME280;11831;55.918;37.746;2022-08-01T05:46:48;99586.84;;;24.06;0.00
23318;BME280;11831;55.918;37.746;2022-08-01T05:49:14;99581.66;;;24.75;0.00
23318;BME280;11831;55.918;37.746;2022-08-01T05:51:40;99579.41;;;24.77;0.00
23318;BME280;11831;55.918;37.746;2022-08-01T05:54:06;99575.78;;;24.99;0.00
23318;BME280;11831;55.918;37.746;2022-08-01T05:56:32;99570.12;;;24.30;0.00
23318;BME280;11831;55.918;37.746;2022-08-01T05:58:58;99573.84;;;25.00;0.00
23318;BME280;11831;55.918;37.746;2022-08-01T06:01:25;99580.75;;;24.89;0.00
23318;BME280;11831;55.918;37.746;2022-08-01T06:03:51;99572.53;;;24.89;0.00
23318;BME280;11831;55.918;37.746;2022-08-01T06:06:20;99580.41;;;24.82;0.00
23318;BME280;11831;55.918;37.746;2022-08-01T06:08:46;99570.47;;;24.37;0.00
23318;BME280;11831;55.918;37.746;2022-08-01T06:11:12;99580.53;;;24.76;0.00
23318;BME280;11831;55.918;37.746;2022-08-01T06:13:38;99573.81;;;24.83;0.00
23318;BME280;11831;55.918;37.746;2022-08-01T06:16:05;99577.97;;;24.71;0.00
23318;BME280;11831;55.918;37.746;2022-08-01T06:18:31;99573.47;;;24.75;0.00
23318;BME280;11831;55.918;37.746;2022-08-01T06:20:57;99581.25;;;25.08;0.00
23318;BME280;11831;55.918;37.746;2022-08-01T06:23:23;99574.34;;;25.02;0.00
23318;BME280;11831;55.918;37.746;2022-08-01T06:25:52;99579.84;;;25.19;0.00
23318;BME280;11831;55.918;37.746;2022-08-01T06:28:18;99586.38;;;24.92;0.00
23318;BME280;11831;55.918;37.746;2022-08-01T06:30:44;99585.97;;;25.42;0.00
23318;BME280;11831;55.918;37.746;2022-08-01T06:33:10;99580.94;;;25.61;0.00
23318;BME280;11831;55.918;37.746;2022-08-01T06:35:36;99578.22;;;25.53;0.00
23318;BME280;11831;55.918;37.746;2022-08-01T06:38:02;99597.47;;;25.99;0.00
23318;BME280;11831;55.918;37.746;2022-08-01T06:40:29;99592.53;;;25.58;0.00
23318;BME280;11831;55.918;37.746;2022-08-01T06:42:55;99583.88;;;25.74;0.00
23318;BME280;11831;55.918;37.746;2022-08-01T06:45:21;99588.13;;;26.09;0.00
23318;BME280;11831;55.918;37.746;2022-08-01T06:47:51;99581.72;;;25.88;0.00
23318;BME280;11831;55.918;37.746;2022-08-01T06:50:18;99594.22;;;26.15;0.00
23318;BME280;11831;55.918;37.746;2022-08-01T06:52:44;99580.78;;;26.30;0.00
23318;BME280;11831;55.918;37.746;2022-08-01T06:55:10;99579.16;;;26.29;0.00
23318;BME280;11831;55.918;37.746;2022-08-01T06:57:42;99585.12;;;26.31;0.00
23318;BME280;11831;55.918;37.746;2022-08-01T07:00:10;99587.06;;;26.31;0.00
23318;BME280;11831;55.918;37.746;2022-08-01T07:02:38;99595.69;;;26.12;0.00
23318;BME280;11831;55.918;37.746;2022-08-01T07:05:05;99588.38;;;26.63;0.00
23318;BME280;11831;55.918;37.746;2022-08-01T07:07:31;99595.56;;;26.47;0.00
23318;BME280;11831;55.918;37.746;2022-08-01T07:09:57;99595.44;;;26.73;0.00
23318;BME280;11831;55.918;37.746;2022-08-01T07:12:23;99588.81;;;26.74;0.00
23318;BME280;11831;55.918;37.746;2022-08-01T07:14:49;99595.44;;;26.43;0.00
23318;BME280;11831;55.918;37.746;2022-08-01T07:17:15;99593.53;;;26.26;0.00
23318;BME280;11831;55.918;37.746;2022-08-01T07:19:42;99592.72;;;26.73;0.00
23318;BME280;11831;55.918;37.746;2022-08-01T07:22:08;99588.34;;;25.87;0.00
23318;BME280;11831;55.918;37.746;2022-08-01T07:24:34;99592.75;;;26.17;0.00
23318;BME280;11831;55.918;37.746;2022-08-01T07:27:00;99583.88;;;26.67;0.00
23318;BME280;11831;55.918;37.746;2022-08-01T07:29:26;99592.44;;;26.66;0.00
23318;BME280;11831;55.918;37.746;2022-08-01T07:31:53;99589.56;;;26.53;0.00
23318;BME280;11831;55.918;37.746;2022-08-01T07:34:20;99592.06;;;26.29;0.00
23318;BME280;11831;55.918;37.746;2022-08-01T07:36:46;99589.09;;;25.96;0.00
23318;BME280;11831;55.918;37.746;2022-08-01T07:39:12;99591.16;;;26.16;0.00
23318;BME280;11831;55.918;37.746;2022-08-01T07:41:38;99591.63;;;26.18;0.00
23318;BME280;11831;55.918;37.746;2022-08-01T07:44:04;99588.87;;;26.18;0.00
23318;BME280;11831;55.918;37.746;2022-08-01T07:46:30;99581.44;;;26.27;0.00
23318;BME280;11831;55.918;37.746;2022-08-01T07:48:57;99586.88;;;26.74;0.00
23318;BME280;11831;55.918;37.746;2022-08-01T07:51:23;99584.81;;;26.42;0.00
23318;BME280;11831;55.918;37.746;2022-08-01T07:53:49;99573.25;;;26.86;0.00
23318;BME280;11831;55.918;37.746;2022-08-01T07:56:15;99573.50;;;27.23;0.00
23318;BME280;11831;55.918;37.746;2022-08-01T07:58:41;99585.00;;;27.37;0.00
23318;BME280;11831;55.918;37.746;2022-08-01T08:01:07;99578.03;;;27.61;0.00
23318;BME280;11831;55.918;37.746;2022-08-01T08:03:34;99580.84;;;27.85;0.00
23318;BME280;11831;55.918;37.746;2022-08-01T08:06:00;99575.78;;;27.63;0.00
23318;BME280;11831;55.918;37.746;2022-08-01T08:08:26;99583.06;;;27.59;0.00
23318;BME280;11831;55.918;37.746;2022-08-01T08:10:53;99581.78;;;27.56;0.00
23318;BME280;11831;55.918;37.746;2022-08-01T08:13:19;99576.94;;;27.74;0.00
23318;BME280;11831;55.918;37.746;2022-08-01T08:15:45;99576.47;;;27.72;0.00
23318;BME280;11831;55.918;37.746;2022-08-01T08:18:12;99570.91;;;26.76;0.00
23318;BME280;11831;55.918;37.746;2022-08-01T08:20:38;99571.72;;;26.47;0.00
23318;BME280;11831;55.918;37.746;2022-08-01T08:23:04;99568.34;;;27.01;0.00
23318;BME280;11831;55.918;37.746;2022-08-01T08:25:50;99570.81;;;27.35;0.00
23318;BME280;11831;55.918;37.746;2022-08-01T08:28:16;99570.53;;;27.70;0.00
23318;BME280;11831;55.918;37.746;2022-08-01T08:30:42;99566.03;;;27.98;0.00
23318;BME280;11831;55.918;37.746;2022-08-01T08:33:08;99561.44;;;27.90;0.00
23318;BME280;11831;55.918;37.746;2022-08-01T08:35:34;99562.72;;;28.05;0.00
23318;BME280;11831;55.918;37.746;2022-08-01T08:38:00;99566.66;;;27.83;0.00
23318;BME280;11831;55.918;37.746;2022-08-01T08:40:29;99564.34;;;27.73;0.00
23318;BME280;11831;55.918;37.746;2022-08-01T08:42:56;99563.44;;;28.38;0.00
23318;BME280;11831;55.918;37.746;2022-08-01T08:45:22;99561.06;;;28.37;0.00
23318;BME280;11831;55.918;37.746;2022-08-01T08:47:48;99557.34;;;28.08;0.00
23318;BME280;11831;55.918;37.746;2022-08-01T08:50:15;99554.34;;;28.01;0.00
23318;BME280;11831;55.918;37.746;2022-08-01T08:52:42;99557.38;;;28.33;0.00
23318;BME280;11831;55.918;37.746;2022-08-01T08:55:09;99558.06;;;28.18;0.00
23318;BME280;11831;55.918;37.746;2022-08-01T08:57:38;99557.03;;;28.59;0.00
23318;BME280;11831;55.918;37.746;2022-08-01T09:00:05;99555.06;;;28.71;0.00
23318;BME280;11831;55.918;37.746;2022-08-01T09:02:31;99550.06;;;28.61;0.00
23318;BME280;11831;55.918;37.746;2022-08-01T09:04:57;99553.09;;;29.49;0.00
23318;BME280;11831;55.918;37.746;2022-08-01T09:07:24;99547.75;;;28.88;0.00
23318;BME280;11831;55.918;37.746;2022-08-01T09:09:51;99543.81;;;28.15;0.00
23318;BME280;11831;55.918;37.746;2022-08-01T09:12:18;99547.75;;;28.39;0.00
23318;BME280;11831;55.918;37.746;2022-08-01T09:14:45;99543.06;;;28.88;0.00
23318;BME280;11831;55.918;37.746;2022-08-01T09:17:11;99547.50;;;28.93;0.00
23318;BME280;11831;55.918;37.746;2022-08-01T09:19:39;99546.59;;;28.64;0.00
23318;BME280;11831;55.918;37.746;2022-08-01T09:22:07;99544.56;;;28.49;0.00
23318;BME280;11831;55.918;37.746;2022-08-01T09:24:33;99542.91;;;29.09;0.00
23318;BME280;11831;55.918;37.746;2022-08-01T09:27:00;99545.09;;;28.91;0.00
23318;BME280;11831;55.918;37.746;2022-08-01T09:29:27;99546.28;;;29.18;0.00
23318;BME280;11831;55.918;37.746;2022-08-01T09:31:55;99549.44;;;29.45;0.00
23318;BME280;11831;55.918;37.746;2022-08-01T09:34:26;99544.97;;;29.40;0.00
23318;BME280;11831;55.918;37.746;2022-08-01T09:36:53;99541.44;;;29.27;0.00
23318;BME280;11831;55.918;37.746;2022-08-01T09:39:25;99536.84;;;28.79;0.00
23318;BME280;11831;55.918;37.746;2022-08-01T09:41:51;99540.88;;;29.22;0.00
23318;BME280;11831;55.918;37.746;2022-08-01T09:44:18;99533.47;;;29.66;0.00
23318;BME280;11831;55.918;37.746;2022-08-01T09:46:51;99541.72;;;29.38;0.00
23318;BME280;11831;55.918;37.746;2022-08-01T09:49:26;99546.16;;;29.27;0.00
23318;BME280;11831;55.918;37.746;2022-08-01T09:51:53;99541.19;;;29.32;0.00
23318;BME280;11831;55.918;37.746;2022-08-01T09:54:29;99537.25;;;29.89;0.00
23318;BME280;11831;55.918;37.746;2022-08-01T09:56:56;99534.13;;;29.91;0.00
23318;BME280;11831;55.918;37.746;2022-08-01T09:59:36;99535.06;;;30.11;0.00
23318;BME280;11831;55.918;37.746;2022-08-01T10:02:03;99534.81;;;30.16;0.00
23318;BME280;11831;55.918;37.746;2022-08-01T10:04:29;99533.81;;;29.36;0.00
23318;BME280;11831;55.918;37.746;2022-08-01T10:07:03;99527.84;;;30.22;0.00
23318;BME280;11831;55.918;37.746;2022-08-01T10:09:30;99526.44;;;29.53;0.00
23318;BME280;11831;55.918;37.746;2022-08-01T10:11:58;99523.06;;;29.31;0.00
23318;BME280;11831;55.918;37.746;2022-08-01T10:14:25;99520.44;;;29.79;0.00
23318;BME280;11831;55.918;37.746;2022-08-01T10:16:52;99528.00;;;29.97;0.00
23318;BME280;11831;55.918;37.746;2022-08-01T10:19:20;99519.66;;;30.25;0.00
23318;BME280;11831;55.918;37.746;2022-08-01T10:21:47;99526.78;;;30.42;0.00
23318;BME280;11831;55.918;37.746;2022-08-01T10:24:16;99517.75;;;29.66;0.00
23318;BME280;11831;55.918;37.746;2022-08-01T10:26:42;99516.28;;;29.85;0.00
23318;BME280;11831;55.918;37.746;2022-08-01T10:29:08;99515.84;;;30.30;0.00
23318;BME280;11831;55.918;37.746;2022-08-01T10:31:35;99516.03;;;30.37;0.00
23318;BME280;11831;55.918;37.746;2022-08-01T10:34:02;99512.44;;;30.68;0.00
23318;BME280;11831;55.918;37.746;2022-08-01T10:36:28;99508.03;;;30.16;0.00
23318;BME280;11831;55.918;37.746;2022-08-01T10:38:55;99516.09;;;30.41;0.00
23318;BME280;11831;55.918;37.746;2022-08-01T10:41:21;99514.31;;;30.48;0.00
23318;BME280;11831;55.918;37.746;2022-08-01T10:43:48;99512.34;;;30.65;0.00
23318;BME280;11831;55.918;37.746;2022-08-01T10:46:14;99510.81;;;30.67;0.00
23318;BME280;11831;55.918;37.746;2022-08-01T10:51:15;99512.38;;;31.03;0.00
23318;BME280;11831;55.918;37.746;2022-08-01T10:53:46;99510.19;;;31.12;0.00
23318;BME280;11831;55.918;37.746;2022-08-01T10:56:12;99502.81;;;31.16;0.00
23318;BME280;11831;55.918;37.746;2022-08-01T10:58:38;99506.88;;;31.03;0.00
23318;BME280;11831;55.918;37.746;2022-08-01T11:01:19;99516.38;;;30.20;0.00
23318;BME280;11831;55.918;37.746;2022-08-01T11:04:01;99506.03;;;30.83;0.00
23318;BME280;11831;55.918;37.746;2022-08-01T11:12:23;99504.41;;;31.17;0.00
23318;BME280;11831;55.918;37.746;2022-08-01T11:14:25;99506.37;;;31.78;0.00
23318;BME280;11831;55.918;37.746;2022-08-01T11:16:51;99497.34;;;31.01;0.00
23318;BME280;11831;55.918;37.746;2022-08-01T11:19:17;99499.31;;;31.00;0.00
23318;BME280;11831;55.918;37.746;2022-08-01T11:29:41;99485.81;;;34.26;41.45
23318;BME280;11831;55.918;37.746;2022-08-01T11:32:26;99486.78;;;34.45;41.27
23318;BME280;11831;55.918;37.746;2022-08-01T11:34:55;99491.47;;;33.89;40.19
23318;BME280;11831;55.918;37.746;2022-08-01T11:37:22;99484.38;;;33.92;40.92
23318;BME280;11831;55.918;37.746;2022-08-01T11:40:23;99481.16;;;33.46;0.00
23318;BME280;11831;55.918;37.746;2022-08-01T11:42:41;99478.91;;;32.91;0.00
23318;BME280;11831;55.918;37.746;2022-08-01T11:45:08;99481.06;;;31.54;0.00
23318;BME280;11831;55.918;37.746;2022-08-01T11:47:48;99476.72;;;31.98;0.00
23318;BME280;11831;55.918;37.746;2022-08-01T11:52:59;99471.00;;;33.27;0.00
23318;BME280;11831;55.918;37.746;2022-08-01T11:55:26;99473.25;;;34.40;0.00
23318;BME280;11831;55.918;37.746;2022-08-01T11:58:06;99456.47;;;34.88;40.60
23318;BME280;11831;55.918;37.746;2022-08-01T12:00:33;99465.44;;;36.28;39.37
23318;BME280;11831;55.918;37.746;2022-08-01T12:03:03;99461.22;;;37.15;37.00
23318;BME280;11831;55.918;37.746;2022-08-01T12:05:31;99461.63;;;37.13;36.20
23318;BME280;11831;55.918;37.746;2022-08-01T12:07:59;99448.12;;;39.48;34.69
23318;BME280;11831;55.918;37.746;2022-08-01T12:10:27;99450.13;;;38.15;34.73
23318;BME280;11831;55.918;37.746;2022-08-01T12:12:55;99454.16;;;39.50;33.87
23318;BME280;11831;55.918;37.746;2022-08-01T12:15:23;99458.50;;;37.70;35.62
23318;BME280;11831;55.918;37.746;2022-08-01T12:17:51;99447.00;;;36.91;37.88
23318;BME280;11831;55.918;37.746;2022-08-01T12:20:21;99444.69;;;38.79;34.14
23318;BME280;11831;55.918;37.746;2022-08-01T12:22:47;99450.41;;;37.20;35.65
23318;BME280;11831;55.918;37.746;2022-08-01T12:25:14;99441.31;;;37.13;35.07
23318;BME280;11831;55.918;37.746;2022-08-01T12:27:42;99446.63;;;35.01;37.62
23318;BME280;11831;55.918;37.746;2022-08-01T12:30:10;99447.84;;;36.70;36.48
23318;BME280;11831;55.918;37.746;2022-08-01T12:32:37;99454.34;;;36.03;36.25
23318;BME280;11831;55.918;37.746;2022-08-01T12:35:08;99448.34;;;35.52;36.34
23318;BME280;11831;55.918;37.746;2022-08-01T12:37:36;99455.09;;;35.75;36.88
23318;BME280;11831;55.918;37.746;2022-08-01T12:40:10;99447.94;;;36.38;36.37
23318;BME280;11831;55.918;37.746;2022-08-01T12:42:40;99450.34;;;36.08;35.81
23318;BME280;11831;55.918;37.746;2022-08-01T12:45:07;99450.34;;;36.08;36.11
23318;BME280;11831;55.918;37.746;2022-08-01T12:47:35;99438.84;;;35.92;37.18
23318;BME280;11831;55.918;37.746;2022-08-01T12:50:02;99448.34;;;36.08;36.23
23318;BME280;11831;55.918;37.746;2022-08-01T12:52:30;99438.75;;;36.56;35.94
23318;BME280;11831;55.918;37.746;2022-08-01T12:55:15;99443.97;;;36.32;35.99
23318;BME280;11831;55.918;37.746;2022-08-01T12:57:44;99445.53;;;37.98;34.81
23318;BME280;11831;55.918;37.746;2022-08-01T13:00:15;99438.28;;;36.72;35.92
23318;BME280;11831;55.918;37.746;2022-08-01T13:02:43;99437.16;;;39.07;34.21
23318;BME280;11831;55.918;37.746;2022-08-01T13:05:10;99431.78;;;38.55;32.56
23318;BME280;11831;55.918;37.746;2022-08-01T13:10:03;99438.06;;;35.88;35.26
23318;BME280;11831;55.918;37.746;2022-08-01T13:12:30;99421.13;;;34.81;37.09
23318;BME280;11831;55.918;37.746;2022-08-01T13:14:56;99432.72;;;35.04;37.13
23318;BME280;11831;55.918;37.746;2022-08-01T13:17:32;99425.34;;;37.20;35.25
23318;BME280;11831;55.918;37.746;2022-08-01T13:19:58;99425.28;;;36.33;35.64
23318;BME280;11831;55.918;37.746;2022-08-01T13:22:31;99414.63;;;37.15;34.74
23318;BME280;11831;55.918;37.746;2022-08-01T13:25:11;99418.09;;;37.34;34.97
23318;BME280;11831;55.918;37.746;2022-08-01T13:27:37;99421.91;;;38.47;33.42
23318;BME280;11831;55.918;37.746;2022-08-01T13:30:13;99412.50;;;39.29;32.58
23318;BME280;11831;55.918;37.746;2022-08-01T13:32:40;99416.03;;;39.33;31.50
23318;BME280;11831;55.918;37.746;2022-08-01T13:35:07;99406.75;;;41.45;30.74
23318;BME280;11831;55.918;37.746;2022-08-01T13:37:33;99402.75;;;42.24;29.41